createdAt,value
2023-03-21T00:01:53.707Z,9.94
2023-03-21T00:04:23.066Z,9.92
2023-03-21T00:06:51.505Z,9.91
2023-03-21T00:09:20.506Z,9.93
2023-03-21T00:11:49.460Z,9.91
2023-03-21T00:14:19.993Z,9.93
2023-03-21T00:16:50.855Z,9.95
2023-03-21T00:19:21.918Z,9.94
2023-03-21T00:22:08.733Z,9.97
2023-03-21T00:24:38.316Z,9.97
2023-03-21T00:27:44.816Z,9.97
2023-03-21T00:29:55.474Z,9.97
2023-03-21T00:32:23.855Z,9.95
2023-03-21T00:35:16.405Z,9.96
2023-03-21T00:37:44.734Z,9.98
2023-03-21T00:40:25.364Z,9.98
2023-03-21T00:42:56.240Z,9.99
2023-03-21T00:45:24.733Z,9.97
2023-03-21T00:47:53.256Z,9.95
2023-03-21T00:50:23.227Z,9.92
2023-03-21T00:52:51.552Z,9.91
2023-03-21T00:55:21.127Z,9.91
2023-03-21T00:57:56.296Z,9.89
2023-03-21T01:00:28.540Z,9.87
2023-03-21T01:03:17.592Z,9.85
2023-03-21T01:06:06.965Z,9.81
2023-03-21T01:08:53.571Z,9.80
2023-03-21T01:11:23.880Z,9.80
2023-03-21T01:13:59.805Z,9.77
2023-03-21T01:16:33.372Z,9.75
2023-03-21T01:19:04.886Z,9.75
2023-03-21T01:21:35.725Z,9.75
2023-03-21T01:24:04.597Z,9.74
2023-03-21T01:26:33.315Z,9.73
2023-03-21T01:29:01.681Z,9.75
2023-03-21T01:31:30.195Z,9.76
2023-03-21T01:33:58.639Z,9.75
2023-03-21T01:36:27.998Z,9.76
2023-03-21T01:38:57.901Z,9.75
2023-03-21T01:41:42.091Z,9.76
2023-03-21T01:44:16.920Z,9.72
2023-03-21T01:47:00.061Z,9.73
2023-03-21T01:49:36.344Z,9.70
2023-03-21T01:52:15.228Z,9.68
2023-03-21T01:54:48.480Z,9.69
2023-03-21T01:57:25.884Z,9.68
2023-03-21T01:59:56.261Z,9.66
2023-03-21T02:02:28.686Z,9.65
2023-03-21T02:04:58.864Z,9.63
2023-03-21T02:07:31.667Z,9.65
2023-03-21T02:10:04.892Z,9.67
2023-03-21T02:12:33.575Z,9.66
2023-03-21T02:15:02.065Z,9.65
2023-03-21T02:17:37.717Z,9.65
2023-03-21T02:20:41.643Z,9.61
2023-03-21T02:23:37.952Z,9.55
2023-03-21T02:26:52.449Z,9.55
2023-03-21T02:29:45.901Z,9.56
2023-03-21T02:32:36.933Z,9.55
2023-03-21T02:35:25.992Z,9.56
2023-03-21T02:38:01.362Z,9.56
2023-03-21T02:40:35.652Z,9.53
2023-03-21T02:43:20.839Z,9.50
2023-03-21T02:45:55.690Z,9.51
2023-03-21T02:48:41.083Z,9.51
2023-03-21T02:51:21.634Z,9.45
2023-03-21T02:54:21.349Z,9.38
2023-03-21T02:56:45.655Z,9.36
2023-03-21T02:59:15.774Z,9.36
2023-03-21T03:01:44.246Z,9.34
2023-03-21T03:04:23.024Z,9.34
2023-03-21T03:07:11.773Z,9.36
2023-03-21T03:09:53.513Z,9.39
2023-03-21T03:12:28.807Z,9.36
2023-03-21T03:15:05.749Z,9.36
2023-03-21T03:17:46.409Z,9.33
2023-03-21T03:20:31.770Z,9.33
2023-03-21T03:23:13.882Z,9.35
2023-03-21T03:25:49.125Z,9.37
2023-03-21T03:28:21.659Z,9.35
2023-03-21T03:31:07.549Z,9.36
2023-03-21T03:33:40.201Z,9.39
2023-03-21T03:36:28.437Z,9.41
2023-03-21T03:39:01.615Z,9.42
2023-03-21T03:41:56.216Z,9.39
2023-03-21T03:44:21.003Z,9.34
2023-03-21T03:46:54.362Z,9.33
2023-03-21T03:49:26.068Z,9.35
2023-03-21T03:51:59.033Z,9.36
2023-03-21T03:54:32.243Z,9.41
2023-03-21T03:57:02.549Z,9.44
2023-03-21T03:59:31.069Z,9.44
2023-03-21T04:01:59.592Z,9.42
2023-03-21T04:04:29.330Z,9.41
2023-03-21T04:06:58.188Z,9.39
2023-03-21T04:09:41.241Z,9.42
2023-03-21T04:12:14.161Z,9.45
2023-03-21T04:14:47.428Z,9.52
2023-03-21T04:17:16.542Z,9.54
2023-03-21T04:19:45.448Z,9.57
2023-03-21T04:22:14.326Z,9.58
2023-03-21T04:24:42.910Z,9.60
2023-03-21T04:27:11.507Z,9.58
2023-03-21T04:29:41.499Z,9.54
2023-03-21T04:32:16.350Z,9.53
2023-03-21T04:34:49.826Z,9.51
2023-03-21T04:37:19.232Z,9.49
2023-03-21T04:39:47.951Z,9.48
2023-03-21T04:42:18.533Z,9.47
2023-03-21T04:44:49.440Z,9.44
2023-03-21T04:47:20.401Z,9.43
2023-03-21T04:49:49.170Z,9.43
2023-03-21T04:52:17.614Z,9.42
2023-03-21T04:54:46.267Z,9.39
2023-03-21T04:57:15.010Z,9.37
2023-03-21T04:59:43.372Z,9.35
2023-03-21T05:02:13.619Z,9.34
2023-03-21T05:04:42.365Z,9.34
2023-03-21T05:07:11.083Z,9.33
2023-03-21T05:09:39.635Z,9.31
2023-03-21T05:12:09.000Z,9.30
2023-03-21T05:14:41.042Z,9.29
2023-03-21T05:17:10.610Z,9.29
2023-03-21T05:19:40.486Z,9.31
2023-03-21T05:22:12.168Z,9.31
2023-03-21T05:24:41.818Z,9.29
2023-03-21T05:27:10.424Z,9.30
2023-03-21T05:29:38.905Z,9.32
2023-03-21T05:32:07.282Z,9.35
2023-03-21T05:34:35.682Z,9.35
2023-03-21T05:37:05.398Z,9.36
2023-03-21T05:39:33.703Z,9.37
2023-03-21T05:42:02.078Z,9.37
2023-03-21T05:44:30.576Z,9.36
2023-03-21T05:46:58.946Z,9.36
2023-03-21T05:49:27.421Z,9.31
2023-03-21T05:51:55.770Z,9.33
2023-03-21T05:54:25.585Z,9.32
2023-03-21T05:56:54.004Z,9.34
2023-03-21T05:59:22.359Z,9.34
2023-03-21T06:01:50.726Z,9.33
2023-03-21T06:04:19.103Z,9.31
2023-03-21T06:06:47.517Z,9.30
2023-03-21T06:09:16.066Z,9.30
2023-03-21T06:11:48.973Z,9.31
2023-03-21T06:14:17.598Z,9.33
2023-03-21T06:16:46.056Z,9.36
2023-03-21T06:19:14.862Z,9.39
2023-03-21T06:21:43.437Z,9.42
2023-03-21T06:24:11.792Z,9.44
2023-03-21T06:26:42.503Z,9.48
2023-03-21T06:29:12.376Z,9.53
2023-03-21T06:31:40.969Z,9.59
2023-03-21T06:34:10.783Z,9.64
2023-03-21T06:36:39.252Z,9.65
2023-03-21T06:39:08.747Z,9.69
2023-03-21T06:41:37.315Z,9.72
2023-03-21T06:44:06.208Z,9.76
2023-03-21T06:46:36.389Z,9.79
2023-03-21T06:49:04.836Z,9.85
2023-03-21T06:51:33.162Z,9.89
2023-03-21T06:54:01.962Z,9.90
2023-03-21T06:56:30.674Z,9.91
2023-03-21T06:58:59.083Z,9.92
2023-03-21T07:01:30.571Z,9.94
2023-03-21T07:04:00.654Z,9.97
2023-03-21T07:06:30.308Z,9.96
2023-03-21T07:08:58.748Z,9.97
2023-03-21T07:11:27.624Z,9.98
2023-03-21T07:13:56.091Z,10.00
2023-03-21T07:16:25.051Z,10.03
2023-03-21T07:18:53.590Z,10.06
2023-03-21T07:21:23.632Z,10.11
2023-03-21T07:23:52.167Z,10.13
2023-03-21T07:26:20.755Z,10.18
2023-03-21T07:28:49.108Z,10.22
2023-03-21T07:31:19.698Z,10.25
2023-03-21T07:33:48.291Z,10.32
2023-03-21T07:36:17.871Z,10.40
2023-03-21T07:38:47.690Z,10.48
2023-03-21T07:43:49.558Z,10.54
2023-03-21T07:46:18.021Z,10.58
2023-03-21T07:48:46.485Z,10.63
2023-03-21T07:51:14.801Z,10.73
2023-03-21T07:53:43.894Z,10.81
2023-03-21T07:56:13.644Z,10.89
2023-03-21T07:58:42.036Z,10.97
2023-03-21T08:01:10.479Z,11.03
2023-03-21T08:03:38.901Z,11.09
2023-03-21T08:06:08.066Z,11.07
2023-03-21T08:08:36.483Z,11.02
2023-03-21T08:11:05.437Z,10.98
2023-03-21T08:13:35.344Z,10.99
2023-03-21T08:16:03.761Z,11.02
2023-03-21T08:18:32.140Z,11.08
2023-03-21T08:21:00.808Z,11.15
2023-03-21T08:23:29.741Z,11.18
2023-03-21T08:25:58.217Z,11.17
2023-03-21T08:28:26.796Z,11.15
2023-03-21T08:30:56.665Z,11.15
2023-03-21T08:33:25.162Z,11.16
2023-03-21T08:35:53.563Z,11.19
2023-03-21T08:38:21.984Z,11.20
2023-03-21T08:40:51.746Z,11.23
2023-03-21T08:43:20.145Z,11.22
2023-03-21T08:45:48.512Z,11.23
2023-03-21T08:48:18.275Z,11.26
2023-03-21T08:50:47.788Z,11.29
2023-03-21T08:53:16.142Z,11.32
2023-03-21T08:55:44.843Z,11.39
2023-03-21T08:58:13.680Z,11.50
2023-03-21T09:00:42.115Z,11.59
2023-03-21T09:03:11.802Z,11.66
2023-03-21T09:05:41.886Z,11.71
2023-03-21T09:08:10.308Z,11.74
2023-03-21T09:10:38.706Z,11.80
2023-03-21T09:13:07.161Z,11.83
2023-03-21T09:15:35.652Z,11.89
2023-03-21T09:18:15.113Z,11.96
2023-03-21T09:20:47.327Z,11.99
2023-03-21T09:23:16.630Z,12.07
2023-03-21T09:25:47.436Z,12.15
2023-03-21T09:28:16.546Z,12.18
2023-03-21T09:30:45.064Z,12.26
2023-03-21T09:33:21.234Z,12.35
2023-03-21T09:35:52.257Z,12.42
2023-03-21T09:38:20.750Z,12.46
2023-03-21T09:41:00.952Z,12.51
2023-03-21T09:43:40.429Z,12.56
2023-03-21T09:46:15.391Z,12.59
2023-03-21T09:48:57.106Z,12.66
2023-03-21T09:51:33.823Z,12.73
2023-03-21T09:54:07.364Z,12.80
2023-03-21T09:56:38.559Z,12.85
2023-03-21T09:59:11.907Z,12.87
2023-03-21T10:01:45.400Z,12.93
2023-03-21T10:04:18.880Z,12.98
2023-03-21T10:06:59.475Z,13.04
2023-03-21T10:09:29.584Z,13.10
2023-03-21T10:12:03.123Z,13.12
2023-03-21T10:14:34.170Z,13.13
2023-03-21T10:17:10.465Z,13.16
2023-03-21T10:19:39.240Z,13.20
2023-03-21T10:22:10.352Z,13.21
2023-03-21T10:24:38.969Z,13.22
2023-03-21T10:27:07.519Z,13.28
2023-03-21T10:29:43.348Z,13.33
2023-03-21T10:32:14.515Z,13.36
2023-03-21T10:34:45.450Z,13.37
2023-03-21T10:37:16.820Z,13.38
2023-03-21T10:39:48.522Z,13.43
2023-03-21T10:42:21.472Z,13.51
2023-03-21T10:44:52.101Z,13.58
2023-03-21T10:47:23.153Z,13.67
2023-03-21T10:50:08.850Z,13.78
2023-03-21T10:52:46.310Z,13.84
2023-03-21T10:55:28.951Z,13.94
2023-03-21T10:58:00.454Z,14.04
2023-03-21T11:00:31.688Z,14.10
2023-03-21T11:03:01.323Z,14.14
2023-03-21T11:05:37.056Z,14.22
2023-03-21T11:08:11.759Z,14.30
2023-03-21T11:10:52.343Z,14.36
2023-03-21T11:13:25.960Z,14.36
2023-03-21T11:15:56.663Z,14.32
2023-03-21T11:18:27.686Z,14.29
2023-03-21T11:20:58.476Z,14.25
2023-03-21T11:23:31.573Z,14.25
2023-03-21T11:26:01.929Z,14.34
2023-03-21T11:28:37.160Z,14.43
2023-03-21T11:31:09.387Z,14.50
2023-03-21T11:33:40.549Z,14.60
2023-03-21T11:36:28.466Z,14.73
2023-03-21T11:39:01.822Z,14.83
2023-03-21T11:41:31.771Z,14.97
2023-03-21T11:44:01.717Z,15.09
2023-03-21T11:46:32.341Z,15.14
2023-03-21T11:49:01.897Z,15.19
2023-03-21T11:51:39.260Z,15.21
2023-03-21T11:54:16.867Z,15.12
2023-03-21T11:56:48.034Z,15.12
2023-03-21T11:59:32.021Z,15.09
2023-03-21T12:02:18.127Z,15.06
2023-03-21T12:04:54.734Z,15.18
2023-03-21T12:07:31.930Z,15.30
2023-03-21T12:10:24.490Z,15.41
2023-03-21T12:13:01.692Z,15.59
2023-03-21T12:15:40.831Z,15.79
2023-03-21T12:18:17.119Z,15.87
2023-03-21T12:20:52.673Z,15.94
2023-03-21T12:23:48.661Z,15.97
2023-03-21T12:26:27.149Z,16.03
2023-03-21T12:29:14.189Z,16.21
2023-03-21T12:31:58.639Z,16.39
2023-03-21T12:34:44.673Z,16.50
2023-03-21T12:37:22.433Z,16.59
2023-03-21T12:39:51.617Z,16.62
2023-03-21T12:42:52.071Z,16.64
2023-03-21T12:45:23.789Z,16.66
2023-03-21T12:47:56.655Z,16.73
2023-03-21T12:50:28.982Z,16.84
2023-03-21T12:53:00.955Z,16.91
2023-03-21T12:55:33.455Z,16.92
2023-03-21T12:58:06.778Z,16.91
2023-03-21T13:00:39.642Z,16.92
2023-03-21T13:03:12.724Z,16.96
2023-03-21T13:05:46.690Z,16.95
2023-03-21T13:08:22.626Z,16.98
2023-03-21T13:10:51.060Z,17.07
2023-03-21T13:13:27.150Z,17.16
2023-03-21T13:16:04.071Z,17.28
2023-03-21T13:18:51.290Z,17.38
2023-03-21T13:21:26.740Z,17.37
2023-03-21T13:24:02.657Z,17.39
2023-03-21T13:26:37.749Z,17.44
2023-03-21T13:29:19.788Z,17.43
2023-03-21T13:31:52.530Z,17.49
2023-03-21T13:34:23.519Z,17.49
2023-03-21T13:36:53.021Z,17.52
2023-03-21T13:39:25.988Z,17.63
2023-03-21T13:41:55.568Z,17.70
2023-03-21T13:44:37.012Z,17.86
2023-03-21T13:47:07.582Z,17.96
2023-03-21T13:49:37.728Z,18.07
2023-03-21T13:52:27.843Z,18.23
2023-03-21T13:54:57.545Z,18.38
2023-03-21T13:57:40.291Z,18.57
2023-03-21T14:00:23.577Z,18.71
2023-03-21T14:02:59.904Z,18.77
2023-03-21T14:05:29.860Z,18.73
2023-03-21T14:08:12.602Z,18.78
2023-03-21T14:10:46.196Z,18.74
2023-03-21T14:13:19.135Z,18.66
2023-03-21T14:15:55.838Z,18.60
2023-03-21T14:18:35.128Z,18.50
2023-03-21T14:21:23.397Z,18.36
2023-03-21T14:24:02.764Z,18.18
2023-03-21T14:26:33.956Z,18.02
2023-03-21T14:29:09.259Z,17.97
2023-03-21T14:31:42.894Z,17.79
2023-03-21T14:34:12.795Z,17.65
2023-03-21T14:36:45.793Z,17.57
2023-03-21T14:39:21.267Z,17.56
2023-03-21T14:42:04.348Z,17.51
2023-03-21T14:44:52.857Z,17.45
2023-03-21T14:47:25.584Z,17.48
2023-03-21T14:49:54.217Z,17.49
2023-03-21T14:52:26.072Z,17.49
2023-03-21T14:54:55.956Z,17.46
2023-03-21T14:57:28.735Z,17.41
2023-03-21T15:00:01.769Z,17.32
2023-03-21T15:02:36.792Z,17.24
2023-03-21T15:05:15.643Z,17.29
2023-03-21T15:07:44.049Z,17.34
2023-03-21T15:10:18.143Z,17.26
2023-03-21T15:12:54.968Z,17.22
2023-03-21T15:15:27.312Z,17.19
2023-03-21T15:18:01.689Z,17.16
2023-03-21T15:20:35.153Z,17.15
2023-03-21T15:23:06.792Z,17.15
2023-03-21T15:25:37.557Z,17.17
2023-03-21T15:28:06.791Z,17.23
2023-03-21T15:30:35.999Z,17.18
2023-03-21T15:33:11.575Z,17.10
2023-03-21T15:35:43.207Z,17.08
2023-03-21T15:38:24.920Z,17.07
2023-03-21T15:41:13.899Z,17.08
2023-03-21T15:43:42.542Z,17.07
2023-03-21T15:46:15.995Z,17.05
2023-03-21T15:48:46.892Z,16.99
2023-03-21T15:51:23.092Z,16.92
2023-03-21T15:53:54.563Z,16.83
2023-03-21T15:56:23.479Z,16.77
2023-03-21T15:58:54.037Z,16.71
2023-03-21T16:01:26.253Z,16.69
2023-03-21T16:03:59.108Z,16.64
2023-03-21T16:06:34.082Z,16.62
2023-03-21T16:09:11.370Z,16.57
2023-03-21T16:11:41.251Z,16.49
2023-03-21T16:14:10.061Z,16.43
2023-03-21T16:16:39.242Z,16.39
2023-03-21T16:19:09.050Z,16.37
2023-03-21T16:21:38.644Z,16.32
2023-03-21T16:24:10.353Z,16.28
2023-03-21T16:26:43.805Z,16.20
2023-03-21T16:29:14.236Z,16.14
2023-03-21T16:31:42.854Z,16.08
2023-03-21T16:34:12.726Z,16.02
2023-03-21T16:36:43.501Z,15.91
2023-03-21T16:39:18.844Z,15.77
2023-03-21T16:41:47.898Z,15.68
2023-03-21T16:44:16.361Z,15.67
2023-03-21T16:46:44.903Z,15.59
2023-03-21T16:49:21.355Z,15.53
2023-03-21T16:51:49.905Z,15.43
2023-03-21T16:54:18.717Z,15.36
2023-03-21T16:56:50.617Z,15.31
2023-03-21T16:59:19.407Z,15.28
2023-03-21T17:01:48.642Z,15.28
2023-03-21T17:04:20.053Z,15.30
2023-03-21T17:06:51.067Z,15.31
2023-03-21T17:09:21.787Z,15.28
2023-03-21T17:11:50.232Z,15.26
2023-03-21T17:14:18.791Z,15.25
2023-03-21T17:16:47.424Z,15.20
2023-03-21T17:19:17.838Z,15.13
2023-03-21T17:21:47.726Z,15.10
2023-03-21T17:24:16.877Z,15.07
2023-03-21T17:26:45.456Z,15.00
2023-03-21T17:29:14.887Z,14.94
2023-03-21T17:31:47.244Z,14.84
2023-03-21T17:34:16.077Z,14.78
2023-03-21T17:36:46.223Z,14.76
2023-03-21T17:39:22.714Z,14.72
2023-03-21T17:41:51.967Z,14.66
2023-03-21T17:44:21.680Z,14.62
2023-03-21T17:46:51.995Z,14.56
2023-03-21T17:49:21.288Z,14.50
2023-03-21T17:51:50.465Z,14.49
2023-03-21T17:54:20.382Z,14.46
2023-03-21T17:56:49.033Z,14.43
2023-03-21T17:59:18.847Z,14.36
2023-03-21T18:01:47.432Z,14.36
2023-03-21T18:04:16.058Z,14.36
2023-03-21T18:06:44.964Z,14.33
2023-03-21T18:09:13.608Z,14.32
2023-03-21T18:11:43.405Z,14.34
2023-03-21T18:14:18.077Z,14.36
2023-03-21T18:16:47.979Z,14.36
2023-03-21T18:19:16.457Z,14.38
2023-03-21T18:21:45.884Z,14.39
2023-03-21T18:24:14.719Z,14.40
2023-03-21T18:26:46.108Z,14.38
2023-03-21T18:32:07.574Z,14.36
2023-03-21T18:34:38.615Z,14.34
2023-03-21T18:37:08.420Z,14.36
2023-03-21T18:39:38.139Z,14.29
2023-03-21T18:42:16.776Z,14.29
2023-03-21T18:44:47.896Z,14.29
2023-03-21T18:47:16.734Z,14.28
2023-03-21T18:52:34.000Z,14.21
2023-03-21T18:55:02.751Z,14.17
2023-03-21T18:57:38.162Z,14.12
2023-03-21T19:00:12.720Z,14.07
2023-03-21T19:02:47.661Z,14.02
2023-03-21T19:05:17.891Z,13.98
2023-03-21T19:07:47.882Z,13.98
2023-03-21T19:10:19.935Z,13.97
2023-03-21T19:12:51.597Z,13.95
2023-03-21T19:15:22.133Z,13.93
2023-03-21T19:18:34.297Z,13.91
2023-03-21T19:20:44.260Z,13.84
2023-03-21T19:23:12.822Z,13.82
2023-03-21T19:25:42.767Z,13.79
2023-03-21T19:28:12.556Z,13.77
2023-03-21T19:30:49.042Z,13.75
2023-03-21T19:33:18.632Z,13.74
2023-03-21T19:35:47.164Z,13.74
2023-03-21T19:38:15.923Z,13.77
2023-03-21T19:40:44.589Z,13.76
2023-03-21T19:43:32.143Z,13.73
2023-03-21T19:46:02.079Z,13.71
2023-03-21T19:48:32.023Z,13.69
2023-03-21T19:53:52.342Z,13.60
2023-03-21T19:56:24.595Z,13.54
2023-03-21T19:58:57.096Z,13.52
2023-03-21T20:01:26.467Z,13.50
2023-03-21T20:03:55.425Z,13.45
2023-03-21T20:06:24.374Z,13.46
2023-03-21T20:11:42.067Z,13.48
2023-03-21T20:14:11.974Z,13.49
2023-03-21T20:16:43.504Z,13.48
2023-03-21T20:19:16.227Z,13.44
2023-03-21T20:21:52.244Z,13.42
2023-03-21T20:24:23.105Z,13.42
2023-03-21T20:26:53.711Z,13.43
2023-03-21T20:32:12.523Z,13.34
2023-03-21T20:34:41.050Z,13.28
2023-03-21T20:37:09.835Z,13.24
2023-03-21T20:39:38.342Z,13.25
2023-03-21T20:42:07.207Z,13.23
2023-03-21T20:44:56.298Z,13.18
2023-03-21T20:47:25.694Z,13.15
2023-03-21T20:49:55.179Z,13.10
2023-03-21T20:55:13.257Z,13.08
2023-03-21T20:57:48.572Z,13.11
2023-03-21T21:00:22.190Z,13.14
2023-03-21T21:02:51.095Z,13.12
2023-03-21T21:05:30.115Z,13.14
2023-03-21T21:07:59.412Z,13.16
2023-03-21T21:10:28.784Z,13.18
2023-03-21T21:12:57.347Z,13.18
2023-03-21T21:15:27.233Z,13.18
2023-03-21T21:18:06.720Z,13.19
2023-03-21T21:20:36.882Z,13.20
2023-03-21T21:23:06.061Z,13.20
2023-03-21T21:25:35.735Z,13.19
2023-03-21T21:28:09.150Z,13.17
2023-03-21T21:30:41.279Z,13.14
2023-03-21T21:33:10.070Z,13.13
2023-03-21T21:35:39.416Z,13.11
2023-03-21T21:38:07.907Z,13.11
2023-03-21T21:40:36.645Z,13.10
2023-03-21T21:43:05.173Z,13.06
2023-03-21T21:45:33.790Z,12.99
2023-03-21T21:48:03.567Z,12.94
2023-03-21T21:50:32.374Z,12.87
2023-03-21T21:53:03.849Z,12.79
2023-03-21T21:55:32.720Z,12.76
2023-03-21T21:58:01.244Z,12.77
2023-03-21T22:00:31.793Z,12.77
2023-03-21T22:03:01.860Z,12.73
2023-03-21T22:05:32.128Z,12.70
2023-03-21T22:08:00.798Z,12.64
2023-03-21T22:10:29.301Z,12.59
2023-03-21T22:12:58.168Z,12.64
2023-03-21T22:15:26.835Z,12.58
2023-03-21T22:17:55.279Z,12.52
2023-03-21T22:20:23.788Z,12.45
2023-03-21T22:22:56.588Z,12.37
2023-03-21T22:25:41.826Z,12.35
2023-03-21T22:28:13.042Z,12.38
2023-03-21T22:30:41.651Z,12.37
2023-03-21T22:33:11.294Z,12.39
2023-03-21T22:35:40.035Z,12.35
2023-03-21T22:38:09.960Z,12.37
2023-03-21T22:40:38.727Z,12.37
2023-03-21T22:43:08.760Z,12.38
2023-03-21T22:45:37.420Z,12.38
2023-03-21T22:48:06.261Z,12.37
2023-03-21T22:50:34.599Z,12.40
2023-03-21T22:53:03.093Z,12.39
2023-03-21T22:55:32.827Z,12.36
2023-03-21T22:58:01.419Z,12.33
2023-03-21T23:00:30.132Z,12.27
2023-03-21T23:02:59.628Z,12.15
2023-03-21T23:05:28.168Z,12.07
2023-03-21T23:07:56.564Z,12.01
2023-03-21T23:10:24.955Z,11.97
2023-03-21T23:12:54.873Z,11.99
2023-03-21T23:15:23.729Z,12.02
2023-03-21T23:17:52.075Z,12.03
2023-03-21T23:20:20.726Z,12.06
2023-03-21T23:22:53.071Z,12.05
2023-03-21T23:25:21.712Z,12.04
2023-03-21T23:27:50.056Z,12.04
2023-03-21T23:30:20.275Z,12.02
2023-03-21T23:32:55.732Z,12.03
2023-03-21T23:35:24.529Z,12.00
2023-03-21T23:37:53.186Z,11.99
2023-03-21T23:40:22.178Z,11.99
2023-03-21T23:42:50.726Z,12.00
2023-03-21T23:45:20.687Z,12.01
2023-03-21T23:47:49.310Z,11.97
2023-03-21T23:50:18.049Z,11.94
2023-03-21T23:52:46.858Z,11.89
2023-03-21T23:55:15.289Z,11.82
2023-03-21T23:57:43.977Z,11.84
